sensor_id;sensor_type;location;lat;lon;timestamp;pressure;altitude;pressure_sealevel;temperature;humidity
23433;BME280;41331;45.412;10.992;2023-04-10T00:00:23;101673.56;;;10.61;76.13
23433;BME280;41331;45.412;10.992;2023-04-10T00:02:50;101667.78;;;10.49;76.58
23433;BME280;41331;45.412;10.992;2023-04-10T00:05:18;101663.97;;;10.50;75.98
23433;BME280;41331;45.412;10.992;2023-04-10T00:07:45;101665.97;;;10.44;76.44
23433;BME280;41331;45.412;10.992;2023-04-10T00:10:12;101662.69;;;10.61;76.81
23433;BME280;41331;45.412;10.992;2023-04-10T00:12:39;101656.63;;;10.64;76.35
23433;BME280;41331;45.412;10.992;2023-04-10T00:15:06;101654.91;;;10.68;76.92
23433;BME280;41331;45.412;10.992;2023-04-10T00:17:34;101652.81;;;10.65;76.32
23433;BME280;41331;45.412;10.992;2023-04-10T00:20:01;101653.63;;;10.66;75.53
23433;BME280;41331;45.412;10.992;2023-04-10T00:22:29;101651.59;;;10.71;74.51
23433;BME280;41331;45.412;10.992;2023-04-10T00:24:56;101650.28;;;10.69;74.47
23433;BME280;41331;45.412;10.992;2023-04-10T00:27:24;101650.59;;;10.67;75.19
23433;BME280;41331;45.412;10.992;2023-04-10T00:29:51;101648.84;;;10.57;75.02
23433;BME280;41331;45.412;10.992;2023-04-10T00:32:18;101648.34;;;10.55;74.50
23433;BME280;41331;45.412;10.992;2023-04-10T00:34:45;101649.38;;;10.59;74.28
23433;BME280;41331;45.412;10.992;2023-04-10T00:37:12;101652.09;;;10.59;75.02
23433;BME280;41331;45.412;10.992;2023-04-10T00:39:39;101651.03;;;10.42;76.27
23433;BME280;41331;45.412;10.992;2023-04-10T00:42:07;101657.66;;;10.35;76.96
23433;BME280;41331;45.412;10.992;2023-04-10T00:44:35;101646.56;;;10.32;77.25
23433;BME280;41331;45.412;10.992;2023-04-10T00:47:03;101645.03;;;10.26;76.79
23433;BME280;41331;45.412;10.992;2023-04-10T00:49:31;101648.25;;;10.28;78.07
23433;BME280;41331;45.412;10.992;2023-04-10T00:51:59;101648.06;;;10.24;77.73
23433;BME280;41331;45.412;10.992;2023-04-10T00:54:26;101650.00;;;10.19;78.28
23433;BME280;41331;45.412;10.992;2023-04-10T00:56:53;101647.78;;;10.21;78.07
23433;BME280;41331;45.412;10.992;2023-04-10T00:59:22;101647.13;;;10.29;77.90
23433;BME280;41331;45.412;10.992;2023-04-10T01:01:49;101647.75;;;10.26;77.27
23433;BME280;41331;45.412;10.992;2023-04-10T01:04:17;101641.91;;;10.32;77.37
23433;BME280;41331;45.412;10.992;2023-04-10T01:12:03;101635.88;;;10.17;75.73
23433;BME280;41331;45.412;10.992;2023-04-10T01:22:37;101641.84;;;10.37;73.44
23433;BME280;41331;45.412;10.992;2023-04-10T01:25:18;101642.44;;;10.34;73.76
23433;BME280;41331;45.412;10.992;2023-04-10T01:30:36;101632.16;;;10.31;74.41
23433;BME280;41331;45.412;10.992;2023-04-10T01:33:04;101638.16;;;10.28;73.27
23433;BME280;41331;45.412;10.992;2023-04-10T01:35:34;101629.41;;;10.12;73.71
23433;BME280;41331;45.412;10.992;2023-04-10T01:38:02;101631.47;;;10.21;73.66
23433;BME280;41331;45.412;10.992;2023-04-10T01:40:31;101627.72;;;10.17;74.05
23433;BME280;41331;45.412;10.992;2023-04-10T01:42:59;101628.91;;;9.92;74.90
23433;BME280;41331;45.412;10.992;2023-04-10T01:45:38;101630.91;;;9.86;75.94
23433;BME280;41331;45.412;10.992;2023-04-10T01:48:08;101632.72;;;9.72;75.80
23433;BME280;41331;45.412;10.992;2023-04-10T01:50:35;101627.00;;;9.73;75.15
23433;BME280;41331;45.412;10.992;2023-04-10T01:53:04;101628.03;;;9.77;75.39
23433;BME280;41331;45.412;10.992;2023-04-10T01:55:32;101624.75;;;9.80;75.42
23433;BME280;41331;45.412;10.992;2023-04-10T01:58:03;101617.97;;;9.78;76.26
23433;BME280;41331;45.412;10.992;2023-04-10T02:00:38;101621.06;;;9.71;75.66
23433;BME280;41331;45.412;10.992;2023-04-10T02:03:06;101623.53;;;9.68;75.84
23433;BME280;41331;45.412;10.992;2023-04-10T02:05:43;101631.78;;;9.63;76.16
23433;BME280;41331;45.412;10.992;2023-04-10T02:08:14;101633.97;;;9.60;76.71
23433;BME280;41331;45.412;10.992;2023-04-10T02:10:49;101639.19;;;9.57;76.79
23433;BME280;41331;45.412;10.992;2023-04-10T02:13:19;101630.81;;;9.53;77.50
23433;BME280;41331;45.412;10.992;2023-04-10T02:15:49;101637.28;;;9.57;77.38
23433;BME280;41331;45.412;10.992;2023-04-10T02:18:17;101639.38;;;9.42;78.16
23433;BME280;41331;45.412;10.992;2023-04-10T02:20:46;101640.25;;;9.37;78.21
23433;BME280;41331;45.412;10.992;2023-04-10T02:23:14;101642.72;;;9.33;78.51
23433;BME280;41331;45.412;10.992;2023-04-10T02:25:42;101643.69;;;9.24;79.03
23433;BME280;41331;45.412;10.992;2023-04-10T02:28:09;101648.06;;;9.20;79.24
23433;BME280;41331;45.412;10.992;2023-04-10T02:30:36;101651.53;;;9.25;78.97
23433;BME280;41331;45.412;10.992;2023-04-10T02:33:04;101645.94;;;9.17;79.35
23433;BME280;41331;45.412;10.992;2023-04-10T02:35:32;101650.78;;;8.96;80.23
23433;BME280;41331;45.412;10.992;2023-04-10T02:38:02;101656.56;;;8.89;80.59
23433;BME280;41331;45.412;10.992;2023-04-10T02:40:31;101649.75;;;8.63;83.26
23433;BME280;41331;45.412;10.992;2023-04-10T02:43:10;101647.81;;;8.63;83.45
23433;BME280;41331;45.412;10.992;2023-04-10T02:45:37;101643.69;;;8.71;82.16
23433;BME280;41331;45.412;10.992;2023-04-10T02:48:06;101640.84;;;8.86;80.99
23433;BME280;41331;45.412;10.992;2023-04-10T02:50:33;101647.41;;;8.80;80.75
23433;BME280;41331;45.412;10.992;2023-04-10T02:53:00;101653.41;;;8.77;81.62
23433;BME280;41331;45.412;10.992;2023-04-10T02:55:28;101646.22;;;8.62;82.84
23433;BME280;41331;45.412;10.992;2023-04-10T02:57:55;101650.28;;;8.65;83.35
23433;BME280;41331;45.412;10.992;2023-04-10T03:00:22;101658.13;;;8.66;82.77
23433;BME280;41331;45.412;10.992;2023-04-10T03:03:13;101646.47;;;8.66;82.47
23433;BME280;41331;45.412;10.992;2023-04-10T03:05:48;101654.03;;;8.69;81.78
23433;BME280;41331;45.412;10.992;2023-04-10T03:08:18;101653.69;;;8.75;80.99
23433;BME280;41331;45.412;10.992;2023-04-10T03:10:45;101647.16;;;8.76;81.04
23433;BME280;41331;45.412;10.992;2023-04-10T03:13:14;101646.06;;;8.77;81.20
23433;BME280;41331;45.412;10.992;2023-04-10T03:15:41;101652.00;;;8.85;81.39
23433;BME280;41331;45.412;10.992;2023-04-10T03:18:08;101656.66;;;8.79;81.01
23433;BME280;41331;45.412;10.992;2023-04-10T03:20:38;101661.03;;;8.75;80.66
23433;BME280;41331;45.412;10.992;2023-04-10T03:23:05;101659.97;;;8.71;79.71
23433;BME280;41331;45.412;10.992;2023-04-10T03:25:33;101651.13;;;8.60;80.72
23433;BME280;41331;45.412;10.992;2023-04-10T03:28:01;101658.22;;;8.56;81.36
23433;BME280;41331;45.412;10.992;2023-04-10T03:30:30;101663.34;;;8.57;81.52
23433;BME280;41331;45.412;10.992;2023-04-10T03:32:57;101663.34;;;8.57;80.96
23433;BME280;41331;45.412;10.992;2023-04-10T03:35:24;101662.84;;;8.55;81.36
23433;BME280;41331;45.412;10.992;2023-04-10T03:37:51;101661.50;;;8.53;82.14
23433;BME280;41331;45.412;10.992;2023-04-10T03:40:19;101673.81;;;8.40;82.04
23433;BME280;41331;45.412;10.992;2023-04-10T03:42:46;101667.38;;;8.26;83.03
23433;BME280;41331;45.412;10.992;2023-04-10T03:45:13;101670.09;;;8.26;83.19
23433;BME280;41331;45.412;10.992;2023-04-10T03:47:41;101672.22;;;8.34;82.95
23433;BME280;41331;45.412;10.992;2023-04-10T03:50:10;101676.34;;;8.21;83.96
23433;BME280;41331;45.412;10.992;2023-04-10T03:52:45;101675.03;;;8.19;85.29
23433;BME280;41331;45.412;10.992;2023-04-10T03:55:16;101678.44;;;8.35;84.13
23433;BME280;41331;45.412;10.992;2023-04-10T03:57:48;101678.78;;;8.23;84.75
23433;BME280;41331;45.412;10.992;2023-04-10T04:00:17;101673.94;;;8.20;85.88
23433;BME280;41331;45.412;10.992;2023-04-10T04:02:47;101678.00;;;8.17;85.40
23433;BME280;41331;45.412;10.992;2023-04-10T04:05:43;101673.34;;;8.23;84.79
23433;BME280;41331;45.412;10.992;2023-04-10T04:08:45;101678.31;;;8.16;86.05
23433;BME280;41331;45.412;10.992;2023-04-10T04:11:15;101678.06;;;8.07;86.20
23433;BME280;41331;45.412;10.992;2023-04-10T04:13:58;101686.25;;;8.02;86.45
23433;BME280;41331;45.412;10.992;2023-04-10T04:16:43;101685.88;;;8.19;85.55
23433;BME280;41331;45.412;10.992;2023-04-10T04:19:26;101687.78;;;8.13;85.97
23433;BME280;41331;45.412;10.992;2023-04-10T04:22:15;101690.88;;;7.96;87.05
23433;BME280;41331;45.412;10.992;2023-04-10T04:25:00;101687.97;;;7.83;87.47
23433;BME280;41331;45.412;10.992;2023-04-10T04:27:39;101697.84;;;8.13;86.77
23433;BME280;41331;45.412;10.992;2023-04-10T04:30:26;101697.47;;;7.85;87.51
23433;BME280;41331;45.412;10.992;2023-04-10T04:33:07;101695.69;;;7.60;89.59
23433;BME280;41331;45.412;10.992;2023-04-10T04:35:48;101705.41;;;7.66;89.46
23433;BME280;41331;45.412;10.992;2023-04-10T04:38:22;101705.19;;;7.52;89.71
23433;BME280;41331;45.412;10.992;2023-04-10T04:41:00;101710.56;;;7.58;89.90
23433;BME280;41331;45.412;10.992;2023-04-10T04:43:45;101705.66;;;7.70;89.23
23433;BME280;41331;45.412;10.992;2023-04-10T04:46:24;101713.00;;;7.69;89.52
23433;BME280;41331;45.412;10.992;2023-04-10T04:49:09;101712.69;;;7.71;88.77
23433;BME280;41331;45.412;10.992;2023-04-10T04:52:03;101709.22;;;7.60;88.54
23433;BME280;41331;45.412;10.992;2023-04-10T04:54:53;101714.13;;;7.58;89.51
23433;BME280;41331;45.412;10.992;2023-04-10T04:57:22;101715.44;;;7.66;88.56
23433;BME280;41331;45.412;10.992;2023-04-10T05:00:02;101722.53;;;7.51;89.91
23433;BME280;41331;45.412;10.992;2023-04-10T05:02:58;101727.16;;;7.41;90.86
23433;BME280;41331;45.412;10.992;2023-04-10T05:05:32;101730.19;;;7.34;91.68
23433;BME280;41331;45.412;10.992;2023-04-10T05:08:22;101729.31;;;7.54;90.81
23433;BME280;41331;45.412;10.992;2023-04-10T05:11:08;101730.34;;;7.68;88.41
23433;BME280;41331;45.412;10.992;2023-04-10T05:13:43;101734.06;;;7.77;85.29
23433;BME280;41331;45.412;10.992;2023-04-10T05:16:25;101732.69;;;7.85;85.06
23433;BME280;41331;45.412;10.992;2023-04-10T05:19:09;101738.09;;;7.90;85.22
23433;BME280;41331;45.412;10.992;2023-04-10T05:21:53;101740.22;;;8.03;82.44
23433;BME280;41331;45.412;10.992;2023-04-10T05:24:40;101739.38;;;8.03;82.92
23433;BME280;41331;45.412;10.992;2023-04-10T05:27:12;101737.66;;;8.17;81.83
23433;BME280;41331;45.412;10.992;2023-04-10T05:30:00;101742.25;;;8.22;80.96
23433;BME280;41331;45.412;10.992;2023-04-10T05:33:02;101742.75;;;8.39;80.83
23433;BME280;41331;45.412;10.992;2023-04-10T05:35:32;101741.84;;;8.49;80.32
23433;BME280;41331;45.412;10.992;2023-04-10T05:38:08;101742.34;;;8.56;79.85
23433;BME280;41331;45.412;10.992;2023-04-10T05:41:01;101737.69;;;8.62;79.85
23433;BME280;41331;45.412;10.992;2023-04-10T05:43:36;101747.09;;;8.74;79.72
23433;BME280;41331;45.412;10.992;2023-04-10T05:46:11;101752.19;;;8.81;78.56
23433;BME280;41331;45.412;10.992;2023-04-10T05:49:02;101751.84;;;8.88;79.41
23433;BME280;41331;45.412;10.992;2023-04-10T05:51:34;101755.31;;;8.93;78.50
23433;BME280;41331;45.412;10.992;2023-04-10T05:54:20;101757.41;;;9.06;78.38
23433;BME280;41331;45.412;10.992;2023-04-10T05:57:16;101759.41;;;9.25;78.00
23433;BME280;41331;45.412;10.992;2023-04-10T05:59:46;101772.13;;;9.29;76.58
23433;BME280;41331;45.412;10.992;2023-04-10T06:02:26;101770.97;;;9.36;78.64
23433;BME280;41331;45.412;10.992;2023-04-10T06:04:54;101769.53;;;9.43;77.48
23433;BME280;41331;45.412;10.992;2023-04-10T06:07:21;101771.09;;;9.49;76.60
23433;BME280;41331;45.412;10.992;2023-04-10T06:09:49;101776.94;;;9.62;75.88
23433;BME280;41331;45.412;10.992;2023-04-10T06:12:16;101773.34;;;9.90;75.90
23433;BME280;41331;45.412;10.992;2023-04-10T06:14:43;101772.56;;;10.08;74.18
23433;BME280;41331;45.412;10.992;2023-04-10T06:17:11;101775.66;;;10.21;72.74
23433;BME280;41331;45.412;10.992;2023-04-10T06:19:38;101777.75;;;10.29;73.05
23433;BME280;41331;45.412;10.992;2023-04-10T06:22:05;101778.69;;;10.95;71.72
23433;BME280;41331;45.412;10.992;2023-04-10T06:24:32;101774.66;;;11.06;68.97
23433;BME280;41331;45.412;10.992;2023-04-10T06:26:59;101781.22;;;11.65;66.12
23433;BME280;41331;45.412;10.992;2023-04-10T06:29:26;101779.41;;;11.60;65.41
23433;BME280;41331;45.412;10.992;2023-04-10T06:31:53;101777.97;;;12.04;64.39
23433;BME280;41331;45.412;10.992;2023-04-10T06:34:21;101781.59;;;12.50;64.13
23433;BME280;41331;45.412;10.992;2023-04-10T06:36:56;101787.78;;;12.78;62.03
23433;BME280;41331;45.412;10.992;2023-04-10T06:39:24;101788.34;;;12.88;60.88
23433;BME280;41331;45.412;10.992;2023-04-10T06:41:52;101793.19;;;13.45;59.97
23433;BME280;41331;45.412;10.992;2023-04-10T06:44:39;101776.75;;;14.50;55.71
23433;BME280;41331;45.412;10.992;2023-04-10T06:47:06;101770.06;;;16.60;48.77
23433;BME280;41331;45.412;10.992;2023-04-10T06:49:35;101767.41;;;17.75;45.70
23433;BME280;41331;45.412;10.992;2023-04-10T06:52:02;101765.06;;;19.89;40.94
23433;BME280;41331;45.412;10.992;2023-04-10T06:54:29;101762.66;;;20.81;38.31
23433;BME280;41331;45.412;10.992;2023-04-10T06:56:56;101770.03;;;20.00;39.20
23433;BME280;41331;45.412;10.992;2023-04-10T06:59:24;101769.78;;;19.10;40.01
23433;BME280;41331;45.412;10.992;2023-04-10T07:01:52;101762.38;;;18.70;41.76
23433;BME280;41331;45.412;10.992;2023-04-10T07:04:20;101768.41;;;18.88;41.34
23433;BME280;41331;45.412;10.992;2023-04-10T07:06:47;101761.31;;;19.50;40.30
23433;BME280;41331;45.412;10.992;2023-04-10T07:09:14;101756.81;;;19.74;39.40
23433;BME280;41331;45.412;10.992;2023-04-10T07:11:41;101754.53;;;19.16;39.92
23433;BME280;41331;45.412;10.992;2023-04-10T07:14:08;101757.78;;;18.34;42.36
23433;BME280;41331;45.412;10.992;2023-04-10T07:16:35;101755.31;;;17.92;42.47
23433;BME280;41331;45.412;10.992;2023-04-10T07:19:03;101752.44;;;17.40;42.96
23433;BME280;41331;45.412;10.992;2023-04-10T07:21:30;101754.75;;;17.50;43.49
23433;BME280;41331;45.412;10.992;2023-04-10T07:23:58;101756.03;;;17.77;42.85
23433;BME280;41331;45.412;10.992;2023-04-10T07:26:25;101754.19;;;17.93;43.64
23433;BME280;41331;45.412;10.992;2023-04-10T07:28:53;101750.19;;;17.78;43.39
23433;BME280;41331;45.412;10.992;2023-04-10T07:31:20;101751.41;;;18.46;42.41
23433;BME280;41331;45.412;10.992;2023-04-10T07:33:47;101755.72;;;18.31;40.32
23433;BME280;41331;45.412;10.992;2023-04-10T07:36:14;101748.22;;;18.03;41.85
23433;BME280;41331;45.412;10.992;2023-04-10T07:38:41;101753.56;;;18.12;40.67
23433;BME280;41331;45.412;10.992;2023-04-10T07:41:09;101746.69;;;18.18;40.33
23433;BME280;41331;45.412;10.992;2023-04-10T07:43:38;101742.06;;;18.62;41.38
23433;BME280;41331;45.412;10.992;2023-04-10T07:46:05;101749.50;;;19.50;38.11
23433;BME280;41331;45.412;10.992;2023-04-10T07:48:32;101750.47;;;18.82;39.09
23433;BME280;41331;45.412;10.992;2023-04-10T07:50:59;101747.97;;;19.05;38.51
23433;BME280;41331;45.412;10.992;2023-04-10T07:53:27;101745.69;;;18.67;39.15
23433;BME280;41331;45.412;10.992;2023-04-10T07:55:54;101748.66;;;19.02;37.69
23433;BME280;41331;45.412;10.992;2023-04-10T07:58:21;101755.41;;;18.20;38.78
23433;BME280;41331;45.412;10.992;2023-04-10T08:00:48;101759.56;;;18.82;39.33
23433;BME280;41331;45.412;10.992;2023-04-10T08:03:15;101752.06;;;19.58;36.58
23433;BME280;41331;45.412;10.992;2023-04-10T08:05:43;101752.34;;;20.39;36.20
23433;BME280;41331;45.412;10.992;2023-04-10T08:08:10;101746.06;;;20.81;35.01
23433;BME280;41331;45.412;10.992;2023-04-10T08:10:37;101758.03;;;20.66;35.93
23433;BME280;41331;45.412;10.992;2023-04-10T08:13:05;101759.06;;;21.23;33.29
23433;BME280;41331;45.412;10.992;2023-04-10T08:15:32;101760.53;;;21.36;34.15
23433;BME280;41331;45.412;10.992;2023-04-10T08:17:59;101764.88;;;22.43;32.16
23433;BME280;41331;45.412;10.992;2023-04-10T08:20:26;101756.50;;;21.11;32.58
23433;BME280;41331;45.412;10.992;2023-04-10T08:22:54;101756.03;;;21.51;33.10
23433;BME280;41331;45.412;10.992;2023-04-10T08:25:26;101748.03;;;21.99;33.68
23433;BME280;41331;45.412;10.992;2023-04-10T08:27:53;101748.97;;;21.54;33.24
23433;BME280;41331;45.412;10.992;2023-04-10T08:30:21;101745.91;;;20.16;33.38
23433;BME280;41331;45.412;10.992;2023-04-10T08:32:48;101754.59;;;20.34;33.66
23433;BME280;41331;45.412;10.992;2023-04-10T08:35:15;101752.84;;;21.07;34.03
23433;BME280;41331;45.412;10.992;2023-04-10T08:37:42;101750.38;;;21.97;32.98
23433;BME280;41331;45.412;10.992;2023-04-10T08:40:19;101750.94;;;22.70;31.38
23433;BME280;41331;45.412;10.992;2023-04-10T08:42:46;101752.94;;;21.33;31.92
23433;BME280;41331;45.412;10.992;2023-04-10T08:45:13;101748.81;;;21.46;31.88
23433;BME280;41331;45.412;10.992;2023-04-10T08:47:40;101752.47;;;21.77;32.83
23433;BME280;41331;45.412;10.992;2023-04-10T08:50:09;101747.22;;;22.55;32.71
23433;BME280;41331;45.412;10.992;2023-04-10T08:52:36;101747.72;;;22.64;32.13
23433;BME280;41331;45.412;10.992;2023-04-10T08:55:08;101739.50;;;22.75;30.56
23433;BME280;41331;45.412;10.992;2023-04-10T08:57:38;101745.28;;;21.99;31.63
23433;BME280;41331;45.412;10.992;2023-04-10T09:00:11;101748.53;;;23.02;32.01
23433;BME280;41331;45.412;10.992;2023-04-10T09:02:49;101741.22;;;23.27;31.00
23433;BME280;41331;45.412;10.992;2023-04-10T09:05:21;101739.59;;;23.74;30.20
23433;BME280;41331;45.412;10.992;2023-04-10T09:07:48;101739.84;;;23.07;30.33
23433;BME280;41331;45.412;10.992;2023-04-10T09:10:16;101742.72;;;23.18;30.18
23433;BME280;41331;45.412;10.992;2023-04-10T09:12:46;101741.31;;;22.60;30.63
23433;BME280;41331;45.412;10.992;2023-04-10T09:15:14;101729.13;;;23.06;30.14
23433;BME280;41331;45.412;10.992;2023-04-10T09:18:16;101738.06;;;22.21;31.31
23433;BME280;41331;45.412;10.992;2023-04-10T09:20:35;101741.66;;;23.33;31.34
23433;BME280;41331;45.412;10.992;2023-04-10T09:23:18;101726.25;;;23.98;30.06
23433;BME280;41331;45.412;10.992;2023-04-10T09:25:45;101736.03;;;22.85;30.41
23433;BME280;41331;45.412;10.992;2023-04-10T09:28:12;101736.31;;;24.24;30.38
23433;BME280;41331;45.412;10.992;2023-04-10T09:30:40;101732.72;;;22.72;30.48
23433;BME280;41331;45.412;10.992;2023-04-10T09:33:41;101734.41;;;23.21;31.02
23433;BME280;41331;45.412;10.992;2023-04-10T09:36:01;101738.28;;;22.72;30.62
23433;BME280;41331;45.412;10.992;2023-04-10T09:38:30;101734.47;;;22.88;30.90
23433;BME280;41331;45.412;10.992;2023-04-10T09:41:06;101734.47;;;23.25;31.22
23433;BME280;41331;45.412;10.992;2023-04-10T09:43:34;101751.13;;;23.73;31.10
23433;BME280;41331;45.412;10.992;2023-04-10T09:46:01;101747.16;;;23.26;30.71
23433;BME280;41331;45.412;10.992;2023-04-10T09:48:28;101746.03;;;22.93;30.36
23433;BME280;41331;45.412;10.992;2023-04-10T09:50:55;101734.84;;;22.86;30.41
23433;BME280;41331;45.412;10.992;2023-04-10T09:53:23;101732.13;;;23.31;31.12
23433;BME280;41331;45.412;10.992;2023-04-10T09:55:50;101732.97;;;23.93;29.86
23433;BME280;41331;45.412;10.992;2023-04-10T09:58:17;101728.06;;;23.21;30.79
23433;BME280;41331;45.412;10.992;2023-04-10T10:00:46;101729.63;;;23.66;29.61
23433;BME280;41331;45.412;10.992;2023-04-10T10:03:14;101728.91;;;22.88;29.87
23433;BME280;41331;45.412;10.992;2023-04-10T10:05:43;101719.63;;;24.27;29.52
23433;BME280;41331;45.412;10.992;2023-04-10T10:08:11;101707.91;;;23.86;29.46
23433;BME280;41331;45.412;10.992;2023-04-10T10:10:39;101712.63;;;23.75;29.44
23433;BME280;41331;45.412;10.992;2023-04-10T10:13:07;101706.53;;;23.07;30.88
23433;BME280;41331;45.412;10.992;2023-04-10T10:15:37;101708.13;;;22.07;32.74
23433;BME280;41331;45.412;10.992;2023-04-10T10:20:38;101695.63;;;23.32;31.02
23433;BME280;41331;45.412;10.992;2023-04-10T10:23:08;101703.19;;;22.54;30.76
23433;BME280;41331;45.412;10.992;2023-04-10T10:25:35;101691.97;;;23.21;30.92
23433;BME280;41331;45.412;10.992;2023-04-10T10:28:03;101689.84;;;23.55;30.96
23433;BME280;41331;45.412;10.992;2023-04-10T10:30:33;101691.44;;;23.08;30.41
23433;BME280;41331;45.412;10.992;2023-04-10T10:33:02;101692.44;;;23.34;30.40
23433;BME280;41331;45.412;10.992;2023-04-10T10:35:33;101685.69;;;22.87;30.26
23433;BME280;41331;45.412;10.992;2023-04-10T10:38:01;101687.59;;;23.20;29.87
23433;BME280;41331;45.412;10.992;2023-04-10T10:40:34;101686.81;;;22.41;30.26
23433;BME280;41331;45.412;10.992;2023-04-10T10:48:17;101684.44;;;22.43;30.62
23433;BME280;41331;45.412;10.992;2023-04-10T10:50:49;101687.69;;;22.15;31.10
23433;BME280;41331;45.412;10.992;2023-04-10T10:53:35;101686.69;;;22.68;30.33
23433;BME280;41331;45.412;10.992;2023-04-10T11:01:12;101668.66;;;23.36;31.18
23433;BME280;41331;45.412;10.992;2023-04-10T11:03:39;101672.53;;;22.39;30.41
23433;BME280;41331;45.412;10.992;2023-04-10T11:06:08;101662.91;;;22.67;30.67
23433;BME280;41331;45.412;10.992;2023-04-10T11:08:36;101657.34;;;22.67;31.18
23433;BME280;41331;45.412;10.992;2023-04-10T11:11:10;101660.13;;;23.08;28.84
23433;BME280;41331;45.412;10.992;2023-04-10T11:13:42;101646.97;;;23.01;30.63
23433;BME280;41331;45.412;10.992;2023-04-10T11:19:00;101647.28;;;24.17;28.79
23433;BME280;41331;45.412;10.992;2023-04-10T11:24:26;101630.34;;;23.63;28.96
23433;BME280;41331;45.412;10.992;2023-04-10T11:26:54;101636.72;;;23.05;30.14
23433;BME280;41331;45.412;10.992;2023-04-10T11:31:56;101619.34;;;23.88;29.22
23433;BME280;41331;45.412;10.992;2023-04-10T11:34:24;101618.97;;;23.90;29.12
23433;BME280;41331;45.412;10.992;2023-04-10T11:36:53;101617.03;;;22.06;30.69
23433;BME280;41331;45.412;10.992;2023-04-10T11:39:20;101622.34;;;21.84;31.40
23433;BME280;41331;45.412;10.992;2023-04-10T11:41:51;101621.09;;;21.82;31.56
23433;BME280;41331;45.412;10.992;2023-04-10T11:46:52;101619.75;;;20.92;33.37
23433;BME280;41331;45.412;10.992;2023-04-10T11:49:40;101621.97;;;20.83;33.49
23433;BME280;41331;45.412;10.992;2023-04-10T11:52:07;101607.13;;;21.71;32.81
23433;BME280;41331;45.412;10.992;2023-04-10T11:54:34;101605.66;;;21.24;32.73
23433;BME280;41331;45.412;10.992;2023-04-10T11:59:31;101600.84;;;21.78;32.16
23433;BME280;41331;45.412;10.992;2023-04-10T12:02:08;101595.31;;;21.48;32.20
23433;BME280;41331;45.412;10.992;2023-04-10T12:04:36;101598.41;;;21.42;33.87
23433;BME280;41331;45.412;10.992;2023-04-10T12:07:03;101594.53;;;21.47;33.62
23433;BME280;41331;45.412;10.992;2023-04-10T12:09:31;101596.22;;;21.55;32.01
23433;BME280;41331;45.412;10.992;2023-04-10T12:11:59;101597.78;;;21.03;32.53
23433;BME280;41331;45.412;10.992;2023-04-10T12:14:30;101598.00;;;20.68;34.30
23433;BME280;41331;45.412;10.992;2023-04-10T12:16:58;101597.38;;;21.28;32.57
23433;BME280;41331;45.412;10.992;2023-04-10T12:19:26;101590.31;;;21.04;32.23
23433;BME280;41331;45.412;10.992;2023-04-10T12:21:54;101589.16;;;21.31;33.24
23433;BME280;41331;45.412;10.992;2023-04-10T12:29:42;101582.91;;;21.64;32.90
23433;BME280;41331;45.412;10.992;2023-04-10T12:32:10;101573.97;;;21.48;32.40
23433;BME280;41331;45.412;10.992;2023-04-10T12:34:37;101578.03;;;21.58;31.66
23433;BME280;41331;45.412;10.992;2023-04-10T12:37:04;101573.97;;;21.48;31.65
23433;BME280;41331;45.412;10.992;2023-04-10T12:39:32;101574.06;;;21.02;32.29
23433;BME280;41331;45.412;10.992;2023-04-10T12:45:00;101584.47;;;21.35;31.63
23433;BME280;41331;45.412;10.992;2023-04-10T12:47:27;101562.53;;;22.17;31.88
23433;BME280;41331;45.412;10.992;2023-04-10T12:50:07;101551.94;;;22.74;31.16
23433;BME280;41331;45.412;10.992;2023-04-10T12:52:37;101569.34;;;21.29;32.73
23433;BME280;41331;45.412;10.992;2023-04-10T12:55:11;101562.38;;;20.63;33.11
23433;BME280;41331;45.412;10.992;2023-04-10T12:57:39;101556.34;;;20.80;33.88
23433;BME280;41331;45.412;10.992;2023-04-10T13:00:11;101555.28;;;21.15;33.61
23433;BME280;41331;45.412;10.992;2023-04-10T13:02:39;101550.63;;;21.23;32.06
23433;BME280;41331;45.412;10.992;2023-04-10T13:05:07;101558.94;;;21.79;31.23
23433;BME280;41331;45.412;10.992;2023-04-10T13:07:37;101548.31;;;21.25;32.26
23433;BME280;41331;45.412;10.992;2023-04-10T13:10:05;101550.94;;;21.14;32.06
23433;BME280;41331;45.412;10.992;2023-04-10T13:12:33;101549.69;;;19.97;33.65
23433;BME280;41331;45.412;10.992;2023-04-10T13:15:02;101552.78;;;20.34;33.94
23433;BME280;41331;45.412;10.992;2023-04-10T13:17:29;101557.50;;;20.33;33.46
23433;BME280;41331;45.412;10.992;2023-04-10T13:19:56;101546.63;;;20.67;34.14
23433;BME280;41331;45.412;10.992;2023-04-10T13:22:23;101542.31;;;21.23;33.37
23433;BME280;41331;45.412;10.992;2023-04-10T13:24:50;101546.22;;;21.18;32.67
23433;BME280;41331;45.412;10.992;2023-04-10T13:27:17;101542.56;;;21.37;33.89
23433;BME280;41331;45.412;10.992;2023-04-10T13:29:45;101548.56;;;21.16;32.77
23433;BME280;41331;45.412;10.992;2023-04-10T13:32:12;101545.59;;;20.75;33.62
23433;BME280;41331;45.412;10.992;2023-04-10T13:34:39;101550.59;;;20.92;33.68
23433;BME280;41331;45.412;10.992;2023-04-10T13:37:08;101530.59;;;20.76;33.28
23433;BME280;41331;45.412;10.992;2023-04-10T13:39:37;101538.88;;;20.53;33.22
23433;BME280;41331;45.412;10.992;2023-04-10T13:42:04;101533.97;;;20.92;33.03
23433;BME280;41331;45.412;10.992;2023-04-10T13:44:31;101541.88;;;20.90;33.00
23433;BME280;41331;45.412;10.992;2023-04-10T13:46:58;101537.25;;;20.06;33.33
23433;BME280;41331;45.412;10.992;2023-04-10T13:49:26;101535.97;;;20.46;33.40
23433;BME280;41331;45.412;10.992;2023-04-10T13:51:56;101534.69;;;20.40;33.41